Time,TemperatureF,DewpointF,PressureIn,WindDirection,WindDirectionDegrees,WindSpeedMPH,WindSpeedGustMPH,Humidity,HourlyPrecipIn,Conditions,Clouds,dailyrainin,SoftwareType,DateUTC
2013-03-06 00:04:00,44.6,41.0,29.50,South,172,12.0,-999.0,88,-99.99,,,0.02,weatherlink.com 1.10,2013-03-06 08:04:00,
2013-03-06 00:19:00,44.9,42.0,29.50,SW,234,13.0,-999.0,88,-99.99,,,0.03,weatherlink.com 1.10,2013-03-06 08:19:00,
2013-03-06 00:34:00,44.8,42.0,29.50,SW,215,16.0,-999.0,88,-99.99,,,0.03,weatherlink.com 1.10,2013-03-06 08:34:00,
2013-03-06 00:49:00,44.5,41.0,29.50,SW,233,20.0,-999.0,88,-99.99,,,0.03,weatherlink.com 1.10,2013-03-06 08:49:00,
2013-03-06 01:04:00,44.5,41.0,29.50,SW,215,22.0,-999.0,88,-99.99,,,0.03,weatherlink.com 1.10,2013-03-06 09:04:00,
2013-03-06 01:19:00,44.6,42.0,29.50,SW,222,13.0,-999.0,89,-99.99,,,0.04,weatherlink.com 1.10,2013-03-06 09:19:00,
2013-03-06 01:34:00,45.0,42.0,29.49,SW,227,20.0,-999.0,89,-99.99,,,0.04,weatherlink.com 1.10,2013-03-06 09:34:00,
2013-03-06 01:49:00,44.9,42.0,29.49,SW,225,19.0,-999.0,90,-99.99,,,0.05,weatherlink.com 1.10,2013-03-06 09:49:00,
2013-03-06 02:04:00,44.9,42.0,29.49,SW,227,16.0,-999.0,90,-99.99,,,0.05,weatherlink.com 1.10,2013-03-06 10:04:00,
2013-03-06 02:19:00,45.5,42.0,29.49,SW,233,20.0,-999.0,88,-99.99,,,0.06,weatherlink.com 1.10,2013-03-06 10:19:00,
2013-03-06 02:34:00,45.4,43.0,29.48,SW,225,22.0,-999.0,90,-99.99,,,0.08,weatherlink.com 1.10,2013-03-06 10:34:00,
2013-03-06 02:49:00,45.3,43.0,29.49,SW,217,14.0,-999.0,91,-99.99,,,0.10,weatherlink.com 1.10,2013-03-06 10:49:00,
2013-03-06 03:03:00,45.1,43.0,29.50,WSW,247,14.0,-999.0,91,-99.99,,,0.12,weatherlink.com 1.10,2013-03-06 11:03:00,
2013-03-06 03:19:00,45.4,43.0,29.50,SSW,213,15.0,-999.0,91,-99.99,,,0.13,weatherlink.com 1.10,2013-03-06 11:19:00,
2013-03-06 03:34:00,45.3,43.0,29.50,WSW,246,15.0,-999.0,91,-99.99,,,0.15,weatherlink.com 1.10,2013-03-06 11:34:00,
2013-03-06 03:49:00,45.0,43.0,29.50,WSW,249,16.0,-999.0,92,-99.99,,,0.17,weatherlink.com 1.10,2013-03-06 11:49:00,
2013-03-06 04:04:00,45.0,43.0,29.51,SW,221,12.0,-999.0,93,-99.99,,,0.20,weatherlink.com 1.10,2013-03-06 12:04:00,
2013-03-06 04:19:00,44.9,43.0,29.52,WSW,237,16.0,-999.0,93,-99.99,,,0.21,weatherlink.com 1.10,2013-03-06 12:19:00,
2013-03-06 04:34:00,44.6,43.0,29.52,WSW,249,12.0,-999.0,92,-99.99,,,0.23,weatherlink.com 1.10,2013-03-06 12:34:00,
2013-03-06 04:49:00,44.4,42.0,29.52,SW,229,14.0,-999.0,92,-99.99,,,0.23,weatherlink.com 1.10,2013-03-06 12:49:00,
2013-03-06 05:04:00,44.2,42.0,29.53,WSW,255,8.0,-999.0,92,-99.99,,,0.25,weatherlink.com 1.10,2013-03-06 13:04:00,
2013-03-06 05:19:00,44.1,42.0,29.53,WSW,241,14.0,-999.0,92,-99.99,,,0.27,weatherlink.com 1.10,2013-03-06 13:19:00,
2013-03-06 05:34:00,44.2,42.0,29.54,West,269,5.0,-999.0,93,-99.99,,,0.28,weatherlink.com 1.10,2013-03-06 13:34:00,
2013-03-06 05:49:00,44.3,42.0,29.54,NW,304,4.0,-999.0,92,-99.99,,,0.28,weatherlink.com 1.10,2013-03-06 13:49:00,
2013-03-06 06:04:00,44.3,42.0,29.55,West,261,5.0,-999.0,92,-99.99,,,0.29,weatherlink.com 1.10,2013-03-06 14:04:00,
2013-03-06 06:19:00,44.0,42.0,29.56,WNW,299,1.0,-999.0,92,-99.99,,,0.30,weatherlink.com 1.10,2013-03-06 14:19:00,
2013-03-06 06:34:00,42.9,41.0,29.56,NW,325,3.0,-999.0,93,-99.99,,,0.31,weatherlink.com 1.10,2013-03-06 14:34:00,
2013-03-06 06:49:00,42.5,41.0,29.57,NNW,346,0.0,-999.0,93,-99.99,,,0.32,weatherlink.com 1.10,2013-03-06 14:49:00,
2013-03-06 07:04:00,42.5,41.0,29.58,NW,311,3.0,-999.0,94,-99.99,,,0.33,weatherlink.com 1.10,2013-03-06 15:04:00,
2013-03-06 07:19:00,42.6,41.0,29.59,West,270,5.0,-999.0,94,-99.99,,,0.34,weatherlink.com 1.10,2013-03-06 15:19:00,
2013-03-06 07:34:00,42.6,41.0,29.59,West,274,4.0,-999.0,94,-99.99,,,0.35,weatherlink.com 1.10,2013-03-06 15:34:00,
2013-03-06 07:49:00,42.5,41.0,29.59,NNW,346,0.0,-999.0,94,-99.99,,,0.35,weatherlink.com 1.10,2013-03-06 15:49:00,
2013-03-06 08:04:00,42.8,41.0,29.60,NE,38,0.0,-999.0,94,-99.99,,,0.35,weatherlink.com 1.10,2013-03-06 16:04:00,
2013-03-06 08:19:00,43.0,41.0,29.61,NNW,329,0.0,-999.0,94,-99.99,,,0.36,weatherlink.com 1.10,2013-03-06 16:19:00,
2013-03-06 08:34:00,43.4,42.0,29.61,WNW,298,0.0,-999.0,95,-99.99,,,0.36,weatherlink.com 1.10,2013-03-06 16:34:00,
2013-03-06 08:49:00,44.5,43.0,29.62,West,274,0.0,-999.0,95,-99.99,,,0.36,weatherlink.com 1.10,2013-03-06 16:49:00,
2013-03-06 09:04:00,44.7,43.0,29.63,WNW,300,0.0,-999.0,93,-99.99,,,0.36,weatherlink.com 1.10,2013-03-06 17:04:00,
2013-03-06 09:19:00,44.9,43.0,29.63,NW,306,0.0,-999.0,92,-99.99,,,0.36,weatherlink.com 1.10,2013-03-06 17:19:00,
2013-03-06 09:34:00,46.1,44.0,29.64,West,275,4.0,-999.0,92,-99.99,,,0.36,weatherlink.com 1.10,2013-03-06 17:34:00,
2013-03-06 09:49:00,46.9,43.0,29.63,WSW,246,0.0,-999.0,86,-99.99,,,0.36,weatherlink.com 1.10,2013-03-06 17:49:00,
2013-03-06 10:04:00,47.8,43.0,29.63,SW,232,0.0,-999.0,84,-99.99,,,0.36,weatherlink.com 1.10,2013-03-06 18:04:00,
2013-03-06 10:19:00,49.5,44.0,29.63,West,271,4.0,-999.0,80,-99.99,,,0.36,weatherlink.com 1.10,2013-03-06 18:19:00,
2013-03-06 10:34:00,48.7,40.0,29.63,WNW,298,2.0,-999.0,73,-99.99,,,0.36,weatherlink.com 1.10,2013-03-06 18:34:00,
2013-03-06 10:49:00,48.4,39.0,29.64,WNW,295,8.0,-999.0,71,-99.99,,,0.36,weatherlink.com 1.10,2013-03-06 18:49:00,
2013-03-06 11:03:00,48.8,40.0,29.65,West,281,6.0,-999.0,72,-99.99,,,0.36,weatherlink.com 1.10,2013-03-06 19:03:00,
2013-03-06 11:19:00,48.5,40.0,29.65,West,268,2.0,-999.0,72,-99.99,,,0.36,weatherlink.com 1.10,2013-03-06 19:19:00,
2013-03-06 11:34:00,49.8,40.0,29.64,NNW,329,2.0,-999.0,68,-99.99,,,0.36,weatherlink.com 1.10,2013-03-06 19:34:00,
2013-03-06 11:49:00,49.9,38.0,29.64,WNW,293,7.0,-999.0,65,-99.99,,,0.36,weatherlink.com 1.10,2013-03-06 19:49:00,
2013-03-06 12:04:00,49.7,37.0,29.64,WNW,294,2.0,-999.0,63,-99.99,,,0.36,weatherlink.com 1.10,2013-03-06 20:04:00,
2013-03-06 12:19:00,49.7,37.0,29.63,WNW,288,8.0,-999.0,61,-99.99,,,0.36,weatherlink.com 1.10,2013-03-06 20:19:00,
2013-03-06 12:34:00,49.6,36.0,29.63,WNW,299,0.0,-999.0,61,-99.99,,,0.36,weatherlink.com 1.10,2013-03-06 20:34:00,
2013-03-06 12:49:00,49.7,37.0,29.63,WNW,291,0.0,-999.0,61,-99.99,,,0.36,weatherlink.com 1.10,2013-03-06 20:49:00,
2013-03-06 13:04:00,50.6,40.0,29.62,North,360,0.0,-999.0,67,-99.99,,,0.36,weatherlink.com 1.10,2013-03-06 21:04:00,
2013-03-06 13:19:00,50.9,40.0,29.62,NW,325,3.0,-999.0,67,-99.99,,,0.36,weatherlink.com 1.10,2013-03-06 21:19:00,
2013-03-06 13:34:00,51.3,42.0,29.61,NNE,32,0.0,-999.0,70,-99.99,,,0.36,weatherlink.com 1.10,2013-03-06 21:34:00,
2013-03-06 13:49:00,51.0,41.0,29.61,NNW,348,2.0,-999.0,69,-99.99,,,0.36,weatherlink.com 1.10,2013-03-06 21:49:00,
2013-03-06 14:04:00,49.9,40.0,29.61,SSW,195,0.0,-999.0,69,-99.99,,,0.36,weatherlink.com 1.10,2013-03-06 22:04:00,
2013-03-06 14:19:00,50.2,40.0,29.61,NNW,330,4.0,-999.0,69,-99.99,,,0.36,weatherlink.com 1.10,2013-03-06 22:19:00,
2013-03-06 14:34:00,49.6,39.0,29.60,NNW,333,2.0,-999.0,67,-99.99,,,0.36,weatherlink.com 1.10,2013-03-06 22:34:00,
2013-03-06 14:49:00,49.6,39.0,29.61,NE,34,1.0,-999.0,66,-99.99,,,0.36,weatherlink.com 1.10,2013-03-06 22:49:00,
2013-03-06 15:03:00,49.6,36.0,29.61,NW,309,3.0,-999.0,60,-99.99,,,0.36,weatherlink.com 1.10,2013-03-06 23:03:00,
2013-03-06 15:19:00,49.1,38.0,29.61,North,10,4.0,-999.0,67,-99.99,,,0.36,weatherlink.com 1.10,2013-03-06 23:19:00,
2013-03-06 15:34:00,47.6,38.0,29.61,ENE,64,0.0,-999.0,70,-99.99,,,0.36,weatherlink.com 1.10,2013-03-06 23:34:00,
2013-03-06 15:49:00,47.4,39.0,29.61,North,5,0.0,-999.0,73,-99.99,,,0.36,weatherlink.com 1.10,2013-03-06 23:49:00,
2013-03-06 16:04:00,47.3,39.0,29.61,NW,322,0.0,-999.0,73,-99.99,,,0.36,weatherlink.com 1.10,2013-03-07 00:04:00,
2013-03-06 16:19:00,47.2,39.0,29.61,NNW,344,0.0,-999.0,73,-99.99,,,0.36,weatherlink.com 1.10,2013-03-07 00:19:00,
2013-03-06 16:34:00,46.7,39.0,29.60,NNE,13,0.0,-999.0,75,-99.99,,,0.36,weatherlink.com 1.10,2013-03-07 00:34:00,
2013-03-06 16:49:00,45.4,40.0,29.60,NW,319,0.0,-999.0,80,-99.99,,,0.36,weatherlink.com 1.10,2013-03-07 00:49:00,
2013-03-06 17:04:00,44.4,40.0,29.60,North,5,0.0,-999.0,84,-99.99,,,0.36,weatherlink.com 1.10,2013-03-07 01:04:00,
2013-03-06 17:19:00,43.6,39.0,29.59,West,272,3.0,-999.0,85,-99.99,,,0.36,weatherlink.com 1.10,2013-03-07 01:19:00,
2013-03-06 17:34:00,43.2,40.0,29.59,WSW,257,2.0,-999.0,87,-99.99,,,0.36,weatherlink.com 1.10,2013-03-07 01:34:00,
2013-03-06 17:49:00,42.8,40.0,29.59,NW,310,0.0,-999.0,88,-99.99,,,0.36,weatherlink.com 1.10,2013-03-07 01:49:00,
2013-03-06 18:04:00,42.2,39.0,29.59,WNW,286,0.0,-999.0,88,-99.99,,,0.00,weatherlink.com 1.10,2013-03-07 02:04:00,